Time;durP1;ratioP1;P1;durP2;ratioP2;P2;SDS_P1;SDS_P2;PMS_P1;PMS_P2;Temp;Humidity;BMP_temperature;BMP_pressure;BME280_temperature;BME280_humidity;BME280_pressure;Samples;Min_cycle;Max_cycle;Signal;HPM_P1;HPM_P2
2021/08/14 00:02:30;;;;;;;12.00;3.58;;;;;;;16.84;65.31;101169.16;5035127;28;20068;-75
2021/08/14 00:05:16;;;;;;;8.48;3.20;;;;;;;16.80;65.49;101162.50;5031179;28;20496;-75
2021/08/14 00:08:02;;;;;;;8.50;3.15;;;;;;;16.77;65.59;101155.59;5025029;28;20117;-75
2021/08/14 00:10:48;;;;;;;9.35;3.53;;;;;;;16.73;65.81;101166.56;5034519;28;20037;-74
2021/08/14 00:13:33;;;;;;;9.70;3.50;;;;;;;16.70;66.12;101161.59;5028992;28;20091;-74
2021/08/14 00:16:19;;;;;;;8.05;3.17;;;;;;;16.67;65.93;101161.41;5026587;28;20038;-74
2021/08/14 00:19:05;;;;;;;6.95;3.38;;;;;;;16.60;66.06;101153.44;5019040;28;20114;-74
2021/08/14 00:21:51;;;;;;;9.60;3.75;;;;;;;16.62;65.96;101145.53;5029926;28;20041;-74
2021/08/14 00:24:37;;;;;;;6.78;3.10;;;;;;;16.58;65.95;101140.91;5032629;28;20033;-74
2021/08/14 00:27:22;;;;;;;9.40;3.75;;;;;;;16.55;66.04;101139.56;5035018;28;20045;-74
2021/08/14 00:30:08;;;;;;;9.82;3.55;;;;;;;16.50;66.11;101134.91;5019752;28;20091;-74
2021/08/14 00:32:54;;;;;;;7.55;3.70;;;;;;;16.49;65.99;101138.00;5024454;28;20026;-74
2021/08/14 00:35:40;;;;;;;7.45;3.50;;;;;;;16.45;66.24;101134.19;5027259;28;20543;-74
2021/08/14 00:38:26;;;;;;;9.02;3.17;;;;;;;16.40;66.49;101137.13;5025988;28;20030;-74
2021/08/14 00:41:12;;;;;;;11.35;3.47;;;;;;;16.37;66.53;101132.16;5033480;28;20091;-75
2021/08/14 00:44:02;;;;;;;9.00;3.38;;;;;;;16.35;66.50;101126.88;5034965;28;20095;-74
2021/08/14 00:46:48;;;;;;;9.35;3.60;;;;;;;16.31;66.70;101129.47;5027215;28;20041;-74
2021/08/14 00:49:33;;;;;;;9.40;3.58;;;;;;;16.26;66.82;101123.16;5031991;28;20041;-75
2021/08/14 00:52:19;;;;;;;7.90;3.25;;;;;;;16.28;66.82;101129.28;5035996;28;20045;-74
2021/08/14 00:55:06;;;;;;;7.03;3.22;;;;;;;16.24;66.81;101131.06;5027129;28;20180;-74
2021/08/14 00:57:52;;;;;;;12.02;3.63;;;;;;;16.20;66.98;101130.06;5024362;28;20096;-75
2021/08/14 01:00:39;;;;;;;9.48;3.63;;;;;;;16.16;67.10;101124.25;5022648;28;20040;-74
2021/08/14 01:03:25;;;;;;;8.20;3.35;;;;;;;16.16;67.15;101124.25;5033042;28;20041;-74
2021/08/14 01:06:13;;;;;;;9.02;3.40;;;;;;;16.19;67.33;101118.03;5032255;28;20033;-74
2021/08/14 01:08:59;;;;;;;7.43;3.10;;;;;;;16.12;67.15;101119.59;5026946;28;20107;-74
2021/08/14 01:11:45;;;;;;;8.10;3.58;;;;;;;16.03;67.60;101113.91;5017430;28;20045;-75
2021/08/14 01:14:34;;;;;;;8.65;3.47;;;;;;;16.04;67.56;101118.38;5023753;28;20041;-74
2021/08/14 01:17:19;;;;;;;11.20;3.40;;;;;;;16.00;67.75;101117.34;5032763;28;20079;-74
2021/08/14 01:20:06;;;;;;;7.65;3.10;;;;;;;15.98;67.83;101116.84;5032042;28;20030;-74
2021/08/14 01:22:52;;;;;;;9.70;3.50;;;;;;;15.94;68.07;101110.22;5032710;28;20037;-74
2021/08/14 01:25:39;;;;;;;8.90;3.45;;;;;;;15.90;68.10;101109.19;5023146;28;20093;-74
2021/08/14 01:28:25;;;;;;;9.15;3.42;;;;;;;15.87;68.26;101116.25;5024754;28;20037;-74
2021/08/14 01:31:11;;;;;;;8.93;3.30;;;;;;;15.81;68.34;101114.72;5025346;28;20498;-74
2021/08/14 01:33:57;;;;;;;8.50;3.35;;;;;;;15.78;68.31;101110.56;5034781;28;20036;-74
2021/08/14 01:36:47;;;;;;;9.57;3.45;;;;;;;15.76;68.37;101107.25;5019345;28;20034;-75
2021/08/14 01:39:32;;;;;;;8.52;3.30;;;;;;;15.76;68.79;101104.44;5031411;28;20061;-75
2021/08/14 01:42:18;;;;;;;7.40;3.22;;;;;;;15.72;68.50;101095.03;5025366;28;20040;-75
2021/08/14 01:45:05;;;;;;;9.60;3.17;;;;;;;15.71;68.56;101096.19;5016718;28;20406;-75
2021/08/14 01:47:50;;;;;;;11.73;3.70;;;;;;;15.68;68.53;101096.78;5031511;28;20041;-75
2021/08/14 01:50:36;;;;;;;6.97;3.20;;;;;;;15.63;68.55;101092.09;5029556;28;20038;-75
2021/08/14 01:53:22;;;;;;;7.55;3.30;;;;;;;15.65;68.41;101092.59;5030902;28;20033;-75
2021/08/14 01:56:08;;;;;;;8.82;3.20;;;;;;;15.58;69.01;101099.78;5020094;28;20037;-75
2021/08/14 01:58:54;;;;;;;8.45;3.63;;;;;;;15.54;68.76;101096.78;5022265;28;20042;-75
2021/08/14 02:01:39;;;;;;;8.70;3.47;;;;;;;15.56;68.88;101102.91;5029827;28;20037;-75
2021/08/14 02:04:25;;;;;;;7.15;3.67;;;;;;;15.52;69.08;101095.47;5019094;28;20061;-75
2021/08/14 02:07:11;;;;;;;9.43;3.22;;;;;;;15.50;69.18;101097.72;5023178;28;20029;-75
2021/08/14 02:09:57;;;;;;;9.57;3.00;;;;;;;15.46;69.46;101088.28;5034628;28;20033;-75
2021/08/14 02:12:42;;;;;;;6.55;3.40;;;;;;;15.49;68.91;101098.84;5028056;28;20116;-75
2021/08/14 02:15:28;;;;;;;7.95;3.10;;;;;;;15.40;69.16;101088.38;5021107;28;20555;-75
2021/08/14 02:18:14;;;;;;;7.15;3.22;;;;;;;15.35;69.22;101082.94;5025197;28;20029;-75
2021/08/14 02:21:00;;;;;;;10.98;3.83;;;;;;;15.34;69.16;101086.84;5038105;28;20037;-75
2021/08/14 02:23:46;;;;;;;5.45;3.05;;;;;;;15.30;69.76;101088.63;5034442;28;20025;-75
2021/08/14 02:26:32;;;;;;;10.75;3.38;;;;;;;15.28;69.40;101084.47;5034341;28;20045;-75
2021/08/14 02:29:18;;;;;;;9.60;3.42;;;;;;;15.26;69.50;101076.38;5024116;28;20150;-75
2021/08/14 02:32:04;;;;;;;7.78;3.83;;;;;;;15.22;69.44;101071.75;5027382;28;20026;-75
2021/08/14 02:34:50;;;;;;;6.93;3.30;;;;;;;15.25;69.83;101073.91;5033394;28;20437;-75
2021/08/14 02:37:36;;;;;;;11.65;3.30;;;;;;;15.19;69.73;101067.59;5030345;28;20030;-75
2021/08/14 02:40:22;;;;;;;8.60;3.70;;;;;;;15.18;69.43;101065.91;5035472;28;20059;-74
2021/08/14 02:43:07;;;;;;;8.48;3.42;;;;;;;15.12;69.46;101065.19;5030110;28;20225;-75
2021/08/14 02:45:53;;;;;;;6.97;3.28;;;;;;;15.10;69.88;101063.84;5029705;28;20041;-75
2021/08/14 02:48:39;;;;;;;8.98;3.50;;;;;;;15.03;70.00;101055.88;5034415;28;20083;-75
2021/08/14 02:51:25;;;;;;;10.27;3.13;;;;;;;15.01;69.94;101055.34;5028014;28;20050;-75
2021/08/14 02:54:10;;;;;;;10.02;3.53;;;;;;;14.95;70.11;101046.25;5032923;28;20124;-75
2021/08/14 02:56:56;;;;;;;8.25;3.13;;;;;;;14.98;70.11;101051.22;5035063;28;20395;-75
2021/08/14 02:59:42;;;;;;;9.52;3.50;;;;;;;14.94;69.94;101044.59;5021690;28;20783;-75
2021/08/14 03:02:28;;;;;;;10.05;3.30;;;;;;;14.93;69.91;101048.53;5034829;28;20046;-75
2021/08/14 03:05:13;;;;;;;8.57;3.20;;;;;;;14.90;70.45;101049.13;5030674;28;20042;-75
2021/08/14 03:07:59;;;;;;;7.30;3.50;;;;;;;14.90;70.28;101049.13;5023958;28;20044;-75
2021/08/14 03:10:45;;;;;;;10.23;3.28;;;;;;;14.82;70.32;101052.69;5024422;28;20034;-75
2021/08/14 03:13:31;;;;;;;9.18;3.50;;;;;;;14.84;70.39;101055.97;5036070;28;20044;-74
2021/08/14 03:16:17;;;;;;;7.60;3.20;;;;;;;14.83;70.48;101054.31;5032335;28;20112;-74
2021/08/14 03:19:02;;;;;;;8.57;3.03;;;;;;;14.77;70.85;101049.97;5006890;28;20056;-74
2021/08/14 03:21:48;;;;;;;9.05;3.22;;;;;;;14.76;70.58;101051.09;5035321;28;20034;-74
2021/08/14 03:24:34;;;;;;;12.85;3.45;;;;;;;14.72;70.68;101056.50;5028019;28;20087;-74
2021/08/14 03:27:20;;;;;;;9.90;3.58;;;;;;;14.72;70.88;101061.25;5028655;28;20441;-74
2021/08/14 03:30:06;;;;;;;8.02;3.40;;;;;;;14.69;70.85;101051.50;5030472;28;20037;-74
2021/08/14 03:32:53;;;;;;;7.93;3.38;;;;;;;14.67;70.97;101055.75;5036370;28;20036;-74
2021/08/14 03:35:38;;;;;;;7.60;2.92;;;;;;;14.62;70.82;101047.47;5025865;28;20037;-74
2021/08/14 03:38:24;;;;;;;8.80;3.72;;;;;;;14.60;70.92;101052.53;5029970;28;20026;-74
2021/08/14 03:41:10;;;;;;;9.63;3.60;;;;;;;14.60;70.91;101044.13;5019597;28;20044;-74
2021/08/14 03:43:56;;;;;;;10.18;3.90;;;;;;;14.56;71.14;101055.13;5024771;28;20050;-74
2021/08/14 03:46:41;;;;;;;7.53;3.10;;;;;;;14.55;70.72;101047.06;5031307;28;20041;-74
2021/08/14 03:49:27;;;;;;;9.35;3.65;;;;;;;14.53;71.19;101055.72;5029638;28;20091;-74
2021/08/14 03:52:13;;;;;;;8.48;3.55;;;;;;;14.51;70.90;101052.38;5021337;28;20442;-74
2021/08/14 03:54:59;;;;;;;7.82;3.47;;;;;;;14.44;71.52;101052.78;5032765;28;20509;-75
2021/08/14 03:57:44;;;;;;;8.63;3.78;;;;;;;14.44;71.28;101057.56;5029744;28;20090;-74
2021/08/14 04:00:30;;;;;;;10.15;3.40;;;;;;;14.43;71.17;101064.25;5023868;28;20041;-74
2021/08/14 04:03:16;;;;;;;8.75;3.20;;;;;;;14.38;70.95;101062.41;5021343;28;20517;-75
2021/08/14 04:06:02;;;;;;;7.13;3.50;;;;;;;14.30;70.97;101060.31;5031962;28;20041;-74
2021/08/14 04:08:48;;;;;;;8.20;3.15;;;;;;;14.28;71.47;101062.56;5026205;28;20033;-74
2021/08/14 04:11:34;;;;;;;6.00;2.83;;;;;;;14.26;71.33;101067.63;5005971;28;20037;-74
2021/08/14 04:14:19;;;;;;;9.50;3.15;;;;;;;14.26;71.30;101062.03;5022746;28;20044;-74
2021/08/14 04:17:05;;;;;;;7.75;3.35;;;;;;;14.23;71.41;101065.44;5030077;28;20025;-74
2021/08/14 04:19:51;;;;;;;7.40;3.55;;;;;;;14.16;71.32;101063.06;5030990;28;20044;-75
2021/08/14 04:22:37;;;;;;;8.05;3.83;;;;;;;14.16;71.52;101057.47;5018229;28;20041;-74
2021/08/14 04:25:23;;;;;;;7.18;3.20;;;;;;;14.11;71.45;101053.94;5024033;28;20037;-74
2021/08/14 04:28:08;;;;;;;11.27;3.78;;;;;;;14.09;71.60;101057.00;5030890;28;20043;-74
2021/08/14 04:30:54;;;;;;;6.53;3.47;;;;;;;14.03;71.59;101058.22;5023306;28;20042;-74
2021/08/14 04:33:40;;;;;;;8.35;3.70;;;;;;;14.04;71.49;101055.16;5032695;28;20398;-74
2021/08/14 04:36:26;;;;;;;9.43;3.10;;;;;;;14.01;71.52;101050.19;5024092;28;20533;-74
2021/08/14 04:39:12;;;;;;;5.90;3.38;;;;;;;13.98;71.90;101056.34;5027683;28;20512;-74
2021/08/14 04:41:58;;;;;;;9.57;3.45;;;;;;;13.96;71.54;101057.81;5034911;28;20037;-74
2021/08/14 04:44:43;;;;;;;11.75;3.88;;;;;;;13.93;71.78;101056.44;5034347;28;20033;-74
2021/08/14 04:47:29;;;;;;;7.07;3.47;;;;;;;13.90;71.86;101057.06;5024510;28;20041;-74
2021/08/14 04:50:15;;;;;;;6.88;3.53;;;;;;;13.87;71.77;101057.63;5024371;28;20037;-74
2021/08/14 04:53:01;;;;;;;7.15;3.38;;;;;;;13.90;71.92;101051.47;5035630;28;20471;-74
2021/08/14 04:55:47;;;;;;;10.55;3.60;;;;;;;13.85;72.04;101054.34;5032235;28;20554;-74
2021/08/14 04:58:33;;;;;;;13.32;3.50;;;;;;;13.83;71.88;101054.63;5026243;28;20042;-74
2021/08/14 05:01:18;;;;;;;7.25;3.03;;;;;;;13.85;72.04;101054.34;5035900;28;20045;-74
2021/08/14 05:04:04;;;;;;;7.85;3.92;;;;;;;13.80;71.76;101052.44;5020172;28;20029;-75
2021/08/14 05:06:50;;;;;;;7.63;3.15;;;;;;;13.78;72.24;101054.69;5034684;28;20044;-74
2021/08/14 05:09:37;;;;;;;9.52;3.00;;;;;;;13.78;71.83;101051.91;5031659;28;20131;-74
2021/08/14 05:12:23;;;;;;;10.93;3.65;;;;;;;13.77;72.26;101049.44;5030680;28;20068;-74
2021/08/14 05:15:09;;;;;;;7.93;3.22;;;;;;;13.71;72.50;101050.66;5034432;28;20199;-74
2021/08/14 05:17:54;;;;;;;7.10;3.17;;;;;;;13.73;72.60;101051.16;5008780;28;20033;-74
2021/08/14 05:20:40;;;;;;;9.50;3.63;;;;;;;13.74;72.50;101047.25;5038905;28;20371;-74
2021/08/14 05:23:26;;;;;;;7.40;3.45;;;;;;;13.75;73.05;101046.94;5022912;28;20035;-74
2021/08/14 05:26:12;;;;;;;7.43;3.47;;;;;;;13.82;72.77;101050.19;5030374;28;20042;-74
2021/08/14 05:28:58;;;;;;;10.45;3.45;;;;;;;13.86;73.05;101044.81;5025404;28;20038;-74
2021/08/14 05:31:43;;;;;;;8.27;3.50;;;;;;;13.95;73.01;101047.75;5014756;28;20091;-74
2021/08/14 05:34:29;;;;;;;8.55;3.40;;;;;;;14.02;73.20;101046.25;5021382;28;20030;-74
2021/08/14 05:37:15;;;;;;;7.55;3.25;;;;;;;14.13;74.00;101051.66;5034417;28;20068;-74
2021/08/14 05:40:01;;;;;;;7.72;3.35;;;;;;;14.26;74.41;101045.28;5026920;28;20065;-74
2021/08/14 05:42:46;;;;;;;9.10;4.10;;;;;;;14.30;77.07;101049.13;5026674;28;20506;-74
2021/08/14 05:45:33;;;;;;;7.28;3.80;;;;;;;14.40;76.16;101051.75;5027722;28;20537;-74
2021/08/14 05:48:19;;;;;;;12.60;4.45;;;;;;;14.53;78.89;101050.97;5023216;28;20119;-74
2021/08/14 05:51:04;;;;;;;10.55;4.20;;;;;;;14.67;78.32;101052.97;5027120;28;20038;-74
2021/08/14 05:53:50;;;;;;;13.23;4.68;;;;;;;14.81;78.98;101044.59;5029278;28;20056;-74
2021/08/14 05:56:36;;;;;;;11.18;4.13;;;;;;;14.95;77.72;101046.25;5023447;28;20474;-74
2021/08/14 05:59:22;;;;;;;11.07;4.45;;;;;;;15.11;79.77;101049.56;5031643;28;20052;-74
2021/08/14 06:02:07;;;;;;;9.23;4.35;;;;;;;15.26;79.17;101034.41;5029335;28;20172;-77
2021/08/14 06:04:53;;;;;;;9.70;4.00;;;;;;;15.42;78.10;101038.53;5036399;28;20470;-76
2021/08/14 06:07:39;;;;;;;12.50;4.78;;;;;;;15.58;79.79;101038.19;5036023;28;20063;-76
2021/08/14 06:10:25;;;;;;;11.38;4.32;;;;;;;15.76;77.93;101036.41;5037027;28;20517;-74
2021/08/14 06:13:10;;;;;;;12.23;4.32;;;;;;;15.91;76.71;101030.44;5031348;28;20105;-77
2021/08/14 06:15:56;;;;;;;9.50;4.25;;;;;;;16.08;74.90;101032.56;5036688;28;20089;-76
2021/08/14 06:18:42;;;;;;;12.55;4.25;;;;;;;16.26;75.78;101037.13;5034980;28;20029;-76
2021/08/14 06:21:28;;;;;;;12.23;4.13;;;;;;;16.44;73.88;101035.25;5034950;28;20033;-74
2021/08/14 06:24:14;;;;;;;11.82;4.20;;;;;;;16.63;74.74;101032.25;5035003;28;20397;-74
2021/08/14 06:27:00;;;;;;;12.25;4.22;;;;;;;16.81;74.00;101027.56;5020270;28;20034;-74
2021/08/14 06:29:45;;;;;;;9.80;4.40;;;;;;;16.97;73.38;101028.78;5025900;28;20040;-74
2021/08/14 06:32:31;;;;;;;9.05;4.20;;;;;;;17.16;72.40;101028.50;5032089;28;20137;-74
2021/08/14 06:35:17;;;;;;;11.57;4.00;;;;;;;17.37;72.51;101033.50;5031729;28;20037;-74
2021/08/14 06:38:03;;;;;;;13.77;4.90;;;;;;;17.57;69.88;101024.44;5033856;28;20048;-74
2021/08/14 06:40:49;;;;;;;12.27;3.80;;;;;;;17.74;71.88;101031.22;5037008;28;20037;-74
2021/08/14 06:43:35;;;;;;;11.80;4.40;;;;;;;18.00;70.73;101031.28;5035545;28;20556;-74
2021/08/14 06:46:20;;;;;;;11.00;4.22;;;;;;;18.13;71.68;101035.88;5025877;28;20037;-75
2021/08/14 06:49:06;;;;;;;9.65;4.35;;;;;;;18.30;70.12;101035.84;5025267;28;20405;-74
2021/08/14 06:51:52;;;;;;;12.93;4.53;;;;;;;18.54;69.20;101043.72;5030160;28;20050;-74
2021/08/14 06:54:38;;;;;;;10.60;4.25;;;;;;;18.71;69.38;101042.03;5030464;28;20034;-74
2021/08/14 06:57:24;;;;;;;11.85;4.35;;;;;;;18.89;69.17;101034.38;5029621;28;20039;-74
2021/08/14 07:00:10;;;;;;;18.08;4.10;;;;;;;19.11;68.52;101033.25;5025001;28;20104;-74
2021/08/14 07:02:56;;;;;;;7.68;3.80;;;;;;;19.37;68.42;101031.13;5034764;28;20042;-74
2021/08/14 07:05:42;;;;;;;10.52;3.83;;;;;;;19.56;68.43;101038.31;5034986;28;20041;-74
2021/08/14 07:08:27;;;;;;;8.65;4.03;;;;;;;19.75;67.88;101030.25;5020476;28;20037;-74
2021/08/14 07:11:14;;;;;;;12.18;3.78;;;;;;;19.95;67.71;101030.56;5036818;28;20057;-71
2021/08/14 07:14:00;;;;;;;9.90;3.42;;;;;;;20.20;64.88;101034.31;5012617;28;20029;-72
2021/08/14 07:16:46;;;;;;;7.40;3.60;;;;;;;20.36;65.37;101028.84;5027234;28;20109;-72
2021/08/14 07:19:32;;;;;;;11.80;3.40;;;;;;;20.52;65.23;101024.19;5034260;28;20146;-72
2021/08/14 07:22:18;;;;;;;6.85;3.22;;;;;;;20.71;65.17;101032.94;5027586;28;20046;-71
2021/08/14 07:25:04;;;;;;;8.85;3.08;;;;;;;20.89;64.63;101025.06;5031548;28;20034;-71
2021/08/14 07:27:51;;;;;;;12.30;3.83;;;;;;;21.06;65.56;101026.03;5029143;28;20049;-71
2021/08/14 07:30:37;;;;;;;9.10;3.50;;;;;;;21.25;64.34;101019.78;5031844;28;20033;-71
2021/08/14 07:33:23;;;;;;;7.40;3.63;;;;;;;21.38;64.65;101016.63;5025942;28;20038;-72
2021/08/14 07:36:09;;;;;;;13.02;4.10;;;;;;;21.57;64.21;101018.84;5026587;28;20038;-72
2021/08/14 07:38:54;;;;;;;9.07;3.75;;;;;;;21.79;62.32;101020.31;5031955;28;20029;-72
2021/08/14 07:41:40;;;;;;;11.68;3.72;;;;;;;21.93;61.86;101014.25;5022906;28;20114;-72
2021/08/14 07:44:26;;;;;;;8.38;3.42;;;;;;;22.08;63.08;101015.50;5026982;28;20041;-72
2021/08/14 07:47:12;;;;;;;11.98;4.25;;;;;;;22.27;62.68;101015.66;5047283;28;20101;-72
2021/08/14 07:49:58;;;;;;;9.25;3.80;;;;;;;22.41;61.87;101018.06;5018277;28;20101;-72
2021/08/14 07:52:44;;;;;;;9.77;3.63;;;;;;;22.55;63.50;101017.63;5016514;28;20054;-72
2021/08/14 07:55:30;;;;;;;12.00;3.90;;;;;;;22.69;62.74;101022.84;5035104;28;20048;-76
2021/08/14 07:58:16;;;;;;;9.48;3.75;;;;;;;22.81;63.15;101022.75;5010076;28;20049;-72
2021/08/14 08:01:02;;;;;;;11.05;3.70;;;;;;;22.99;61.83;101019.59;5036193;28;20044;-72
2021/08/14 08:03:47;;;;;;;8.75;3.28;;;;;;;23.28;59.84;101024.75;5025431;28;20037;-73
2021/08/14 08:06:33;;;;;;;8.13;3.10;;;;;;;23.40;60.79;101018.16;5028749;28;20025;-72
2021/08/14 08:09:19;;;;;;;11.30;3.00;;;;;;;23.63;59.00;101016.28;5031415;28;20048;-74
2021/08/14 08:12:06;;;;;;;6.75;3.05;;;;;;;23.81;58.70;101015.88;5036554;28;20102;-72
2021/08/14 08:14:52;;;;;;;9.20;3.20;;;;;;;24.01;58.13;101014.66;5023042;28;20394;-73
2021/08/14 08:17:38;;;;;;;8.70;3.33;;;;;;;24.14;59.31;101006.81;5026826;28;20034;-73
2021/08/14 08:20:23;;;;;;;7.22;3.08;;;;;;;24.22;58.79;101011.44;5031143;28;20029;-73
2021/08/14 08:23:09;;;;;;;9.15;3.55;;;;;;;24.36;58.84;101010.91;5036923;28;20033;-73
2021/08/14 08:25:55;;;;;;;8.02;3.35;;;;;;;24.57;58.88;101006.84;5027854;28;20041;-73
2021/08/14 08:28:41;;;;;;;8.38;3.45;;;;;;;24.71;58.78;101007.94;5022546;28;20029;-75
2021/08/14 08:31:29;;;;;;;9.73;3.55;;;;;;;24.78;58.52;101006.44;5019031;28;20037;-73
2021/08/14 08:34:15;;;;;;;9.43;3.30;;;;;;;24.90;57.88;101009.88;5033037;28;20061;-73
2021/08/14 08:37:00;;;;;;;11.15;4.00;;;;;;;25.03;57.10;101001.97;5032559;28;20029;-73
2021/08/14 08:39:46;;;;;;;8.25;3.08;;;;;;;25.27;56.76;101000.78;5024552;28;20065;-73
2021/08/14 08:42:32;;;;;;;9.68;3.42;;;;;;;25.47;56.98;100994.97;5020211;28;20041;-73
2021/08/14 08:45:21;;;;;;;8.30;2.70;;;;;;;25.67;55.49;101001.34;5036192;28;20076;-77
2021/08/14 08:48:07;;;;;;;9.55;3.47;;;;;;;25.84;54.85;100995.09;5028959;28;20159;-72
2021/08/14 08:50:54;;;;;;;8.02;3.28;;;;;;;26.03;54.57;100997.75;5023651;28;20049;-75
2021/08/14 08:53:40;;;;;;;8.15;3.55;;;;;;;26.15;54.32;100996.69;5022471;28;20160;-72
2021/08/14 08:56:26;;;;;;;6.07;3.05;;;;;;;26.36;55.13;100993.25;5015358;28;20045;-73
2021/08/14 08:59:12;;;;;;;7.30;3.25;;;;;;;26.47;53.18;100988.50;5029876;28;20032;-73
2021/08/14 09:01:58;;;;;;;9.00;3.03;;;;;;;26.65;53.55;100987.88;5024691;28;20049;-73
2021/08/14 09:04:44;;;;;;;7.50;3.25;;;;;;;26.78;52.80;100991.25;5030975;28;20041;-73
2021/08/14 09:07:29;;;;;;;8.60;3.55;;;;;;;26.88;52.78;100990.50;5029015;28;20478;-73
2021/08/14 09:10:21;;;;;;;6.78;3.17;;;;;;;27.01;52.79;100988.19;5022315;28;20092;-73
2021/08/14 09:13:25;;;;;;;5.20;2.72;;;;;;;27.16;52.67;100990.78;5023818;28;20033;-73
2021/08/14 09:16:23;;;;;;;7.03;3.10;;;;;;;27.31;52.59;100982.31;5032260;28;20060;-73
2021/08/14 09:19:19;;;;;;;8.68;2.88;;;;;;;27.46;52.53;100986.88;5015031;28;20057;-74
2021/08/14 09:22:15;;;;;;;7.22;2.92;;;;;;;27.59;51.19;100990.22;5031154;28;20391;-74
2021/08/14 09:25:52;;;;;;;6.85;3.20;;;;;;;27.81;51.08;100985.47;5035214;28;20542;-74
2021/08/14 09:28:38;;;;;;;7.25;2.90;;;;;;;27.95;51.33;100979.81;5032652;28;20064;-75
2021/08/14 09:31:23;;;;;;;6.78;3.05;;;;;;;28.12;51.02;100986.81;5008448;28;20034;-74
2021/08/14 09:34:16;;;;;;;7.25;2.80;;;;;;;28.25;50.82;100982.38;5035677;28;20026;-74
2021/08/14 09:37:04;;;;;;;6.15;2.88;;;;;;;28.41;51.17;100975.44;5022604;28;20041;-74
2021/08/14 09:39:56;;;;;;;5.65;2.80;;;;;;;28.54;50.03;100973.06;5034465;28;20528;-75
2021/08/14 09:42:52;;;;;;;5.97;2.92;;;;;;;28.64;49.88;100980.81;5028476;28;20042;-76
2021/08/14 09:45:38;;;;;;;7.18;3.05;;;;;;;28.78;49.20;100969.41;5029745;28;20117;-75
2021/08/14 09:48:25;;;;;;;5.85;3.40;;;;;;;28.89;49.08;100967.38;5021260;28;20044;-74
2021/08/14 09:51:27;;;;;;;5.03;2.80;;;;;;;29.00;47.05;100966.50;5023574;28;20041;-75
2021/08/14 09:54:13;;;;;;;6.93;2.83;;;;;;;29.06;46.04;100965.75;5035254;28;20509;-75
2021/08/14 09:57:13;;;;;;;5.25;2.75;;;;;;;29.19;47.25;100971.84;5030344;28;20059;-75
2021/08/14 09:59:59;;;;;;;7.15;2.70;;;;;;;29.29;47.89;100973.06;5034507;28;20056;-74
2021/08/14 10:02:45;;;;;;;6.28;2.90;;;;;;;29.39;48.20;100967.31;5019505;28;20087;-74
2021/08/14 10:05:34;;;;;;;5.35;2.70;;;;;;;29.48;47.74;100964.03;5003526;28;20409;-74
2021/08/14 10:08:20;;;;;;;5.32;2.83;;;;;;;29.58;47.08;100966.00;5007267;28;20033;-74
2021/08/14 10:11:08;;;;;;;5.68;2.75;;;;;;;29.69;46.54;100968.06;5021119;28;20116;-74
2021/08/14 10:13:54;;;;;;;7.70;2.83;;;;;;;29.74;45.90;100961.91;5019577;28;20026;-74
2021/08/14 10:16:40;;;;;;;5.35;2.50;;;;;;;29.87;46.53;100954.50;5017721;28;20073;-71
2021/08/14 10:19:26;;;;;;;7.43;2.95;;;;;;;29.98;46.55;100955.25;5008121;28;20061;-73
2021/08/14 10:22:12;;;;;;;6.03;2.90;;;;;;;30.10;46.52;100956.00;5023716;28;20037;-73
2021/08/14 10:24:58;;;;;;;5.32;2.70;;;;;;;30.12;45.78;100948.63;5023250;28;20034;-73
2021/08/14 10:27:58;;;;;;;5.65;3.17;;;;;;;30.20;44.09;100957.97;5033879;28;20033;-73
2021/08/14 10:30:44;;;;;;;6.03;2.80;;;;;;;30.36;45.46;100949.72;5033067;28;20504;-73
2021/08/14 10:33:31;;;;;;;5.30;2.92;;;;;;;30.50;45.69;100943.88;5038738;28;20033;-73
2021/08/14 10:36:17;;;;;;;6.97;3.10;;;;;;;30.60;43.02;100944.25;5038969;28;20038;-72
2021/08/14 10:39:18;;;;;;;5.72;2.90;;;;;;;30.69;44.35;100941.69;5036390;28;20125;-73
2021/08/14 10:42:04;;;;;;;8.00;3.20;;;;;;;30.72;41.43;100947.41;5032931;28;20022;-73
2021/08/14 10:44:52;;;;;;;6.80;2.88;;;;;;;30.82;42.47;100939.97;5034330;28;20088;-73
2021/08/14 10:47:40;;;;;;;6.38;2.70;;;;;;;31.00;43.54;100934.06;5024618;28;20509;-73
2021/08/14 10:50:32;;;;;;;7.97;2.90;;;;;;;31.02;41.41;100933.66;5026959;28;20033;-73
2021/08/14 10:53:18;;;;;;;5.53;2.73;;;;;;;31.09;41.16;100934.41;5030090;28;20049;-73
2021/08/14 10:56:04;;;;;;;5.35;2.70;;;;;;;31.10;41.25;100927.41;5026844;28;20060;-73
2021/08/14 10:58:50;;;;;;;5.28;3.00;;;;;;;31.23;42.73;100933.44;5038507;28;20093;-73
2021/08/14 11:01:37;;;;;;;8.55;2.92;;;;;;;31.29;41.44;100926.00;5029241;28;20042;-73
2021/08/14 11:04:54;;;;;;;6.95;2.80;;;;;;;31.43;40.61;100929.97;5026860;28;20057;-73
2021/08/14 11:07:43;;;;;;;6.22;2.90;;;;;;;31.45;40.68;100924.59;5026213;28;20690;-73
2021/08/14 11:10:34;;;;;;;5.80;2.90;;;;;;;31.54;41.68;100922.84;5023377;28;20045;-73
2021/08/14 11:13:39;;;;;;;6.22;2.38;;;;;;;31.64;41.26;100931.75;5022685;28;20506;-73
2021/08/14 11:16:59;;;;;;;5.57;2.55;;;;;;;31.66;39.27;100923.53;5028085;28;20038;-73
2021/08/14 11:19:57;;;;;;;4.53;2.90;;;;;;;31.80;39.63;100924.16;5027074;28;20033;-74
2021/08/14 11:22:42;;;;;;;4.25;2.90;;;;;;;31.80;37.44;100912.66;5023893;28;20430;-73
2021/08/14 11:25:39;;;;;;;5.88;2.58;;;;;;;31.96;39.65;100917.00;5023594;28;20034;-73
2021/08/14 11:28:25;;;;;;;5.28;2.47;;;;;;;32.13;40.33;100918.81;5023782;28;20046;-74
2021/08/14 11:31:11;;;;;;;5.82;2.83;;;;;;;32.24;40.84;100921.53;5029196;28;20112;-73
2021/08/14 11:34:02;;;;;;;6.47;2.83;;;;;;;32.37;40.65;100918.84;5026843;28;20032;-73
2021/08/14 11:36:57;;;;;;;6.97;2.90;;;;;;;32.48;40.34;100922.38;5034311;28;20413;-73
2021/08/14 11:39:43;;;;;;;6.10;2.70;;;;;;;32.64;41.03;100916.78;5026706;28;20112;-73
2021/08/14 11:42:29;;;;;;;4.82;2.95;;;;;;;32.77;40.01;100910.41;5008725;28;20064;-74
2021/08/14 11:45:15;;;;;;;5.68;3.10;;;;;;;32.92;40.92;100911.78;5023396;28;20037;-73
2021/08/14 11:48:02;;;;;;;8.95;3.58;;;;;;;33.09;38.60;100910.66;5015779;28;20077;-73
2021/08/14 11:50:49;;;;;;;6.60;2.58;;;;;;;33.20;38.15;100904.69;5031559;28;20465;-71
2021/08/14 11:53:34;;;;;;;5.35;2.72;;;;;;;33.13;36.64;100911.41;5018227;28;20034;-71
2021/08/14 11:56:20;;;;;;;9.63;2.65;;;;;;;33.20;36.58;100910.44;5023421;28;20034;-71
2021/08/14 11:59:06;;;;;;;3.80;2.35;;;;;;;33.28;38.14;100911.94;5038954;28;20037;-71
2021/08/14 12:01:52;;;;;;;5.95;2.92;;;;;;;33.29;36.32;100904.94;5035061;28;20045;-71
2021/08/14 12:04:38;;;;;;;4.97;2.60;;;;;;;33.38;36.96;100905.16;5030801;28;20160;-71
2021/08/14 12:07:23;;;;;;;5.57;2.47;;;;;;;33.38;36.97;100898.59;5011662;28;20112;-71
2021/08/14 12:10:09;;;;;;;6.10;2.65;;;;;;;33.54;37.02;100895.81;5023968;28;20042;-71
2021/08/14 12:13:00;;;;;;;4.85;2.63;;;;;;;33.72;38.02;100897.50;5018043;28;20052;-71
2021/08/14 12:15:46;;;;;;;6.25;3.13;;;;;;;33.79;36.76;100892.41;5027318;28;20477;-71
2021/08/14 12:18:33;;;;;;;6.43;2.97;;;;;;;33.91;38.45;100899.53;5034933;28;20041;-71
2021/08/14 12:21:19;;;;;;;5.43;2.60;;;;;;;33.95;37.49;100887.91;5036037;28;20037;-71
2021/08/14 12:24:05;;;;;;;4.30;2.55;;;;;;;33.93;38.80;100897.00;5036124;28;20036;-71
2021/08/14 12:26:51;;;;;;;5.28;2.85;;;;;;;33.86;36.51;100888.53;5028484;28;20033;-72
2021/08/14 12:29:37;;;;;;;4.07;2.33;;;;;;;33.93;36.78;100881.78;5003617;28;20034;-72
2021/08/14 12:32:32;;;;;;;6.72;2.90;;;;;;;33.94;36.45;100890.00;5027837;28;20042;-71
2021/08/14 12:35:22;;;;;;;4.07;2.75;;;;;;;33.85;35.96;100880.31;5027994;28;20465;-71
2021/08/14 12:38:08;;;;;;;7.05;3.00;;;;;;;33.89;36.34;100876.13;5006207;28;20064;-72
2021/08/14 12:40:54;;;;;;;5.32;2.92;;;;;;;33.99;36.97;100880.81;5030743;28;20038;-72
2021/08/14 12:43:46;;;;;;;4.88;2.88;;;;;;;33.99;34.50;100875.06;5029971;28;20039;-72
2021/08/14 12:46:32;;;;;;;;;;;;;;;34.02;35.57;100868.41;5028802;28;20523;-71
2021/08/14 12:49:18;;;;;;;5.35;2.70;;;;;;;34.04;35.33;100856.41;5018448;28;19952;-71
2021/08/14 12:52:06;;;;;;;5.07;2.58;;;;;;;34.03;35.32;100854.81;5023112;28;20068;-71
2021/08/14 12:54:55;;;;;;;7.05;3.00;;;;;;;34.04;35.06;100853.53;5030647;28;20486;-71
2021/08/14 12:57:41;;;;;;;4.15;2.72;;;;;;;33.95;34.66;100853.34;5026498;28;20045;-71